Time;durP1;ratioP1;P1;durP2;ratioP2;P2;SDS_P1;SDS_P2;PMS_P1;PMS_P2;Temp;Humidity;BMP_temperature;BMP_pressure;BME280_temperature;BME280_humidity;BME280_pressure;Samples;Min_cycle;Max_cycle;Signal;HPM_P1;HPM_P2
2020/12/27 00:00:41;;;;;;;3.92;1.40;;;5.80;95.10;;;;;;5012063;28;20050;-73
2020/12/27 00:03:07;;;;;;;2.45;1.42;;;5.80;95.10;;;;;;5012145;28;20026;-76
2020/12/27 00:05:34;;;;;;;2.33;1.35;;;5.90;95.10;;;;;;5013628;28;20026;-76
2020/12/27 00:08:00;;;;;;;3.00;1.70;;;5.90;95.10;;;;;;5011968;28;20354;-75
2020/12/27 00:10:25;;;;;;;8.40;1.80;;;5.80;95.20;;;;;;5011885;28;20038;-74
2020/12/27 00:12:51;;;;;;;3.95;1.88;;;5.80;95.20;;;;;;5012013;28;20124;-74
2020/12/27 00:15:17;;;;;;;3.25;1.70;;;5.80;95.20;;;;;;5011823;28;20018;-75
2020/12/27 00:17:43;;;;;;;3.50;1.77;;;5.80;95.20;;;;;;5013423;28;20372;-72
2020/12/27 00:20:09;;;;;;;2.83;1.88;;;5.80;95.10;;;;;;5011742;28;20089;-73
2020/12/27 00:22:35;;;;;;;4.90;1.38;;;5.90;95.10;;;;;;5011969;28;20349;-73
2020/12/27 00:25:00;;;;;;;3.10;1.63;;;5.80;95.00;;;;;;5010893;28;20041;-74
2020/12/27 00:27:26;;;;;;;2.55;1.40;;;5.90;95.10;;;;;;5011693;28;20490;-73
2020/12/27 00:29:52;;;;;;;3.10;1.17;;;5.90;95.00;;;;;;5013193;28;20057;-73
2020/12/27 00:32:17;;;;;;;3.28;1.50;;;5.90;95.00;;;;;;5011657;28;20392;-75
2020/12/27 00:34:43;;;;;;;2.53;1.63;;;5.90;95.00;;;;;;5011699;28;20104;-74
2020/12/27 00:37:09;;;;;;;3.25;1.65;;;5.80;95.00;;;;;;5011649;28;20117;-72
2020/12/27 00:39:34;;;;;;;3.22;1.67;;;5.90;94.90;;;;;;5011443;28;20135;-74
2020/12/27 00:42:01;;;;;;;6.95;2.10;;;5.90;95.00;;;;;;5013244;28;20034;-75
2020/12/27 00:44:27;;;;;;;6.90;2.08;;;5.90;94.90;;;;;;5010647;28;20045;-74
2020/12/27 00:46:53;;;;;;;3.92;1.83;;;5.80;94.90;;;;;;5011625;28;20038;-75
2020/12/27 00:49:20;;;;;;;3.45;1.70;;;5.80;95.00;;;;;;5011613;28;20034;-75
2020/12/27 00:51:46;;;;;;;4.60;1.73;;;5.80;94.90;;;;;;5011619;28;20042;-74
2020/12/27 00:54:12;;;;;;;6.90;2.67;;;5.80;94.90;;;;;;5011182;28;20037;-75
2020/12/27 00:56:39;;;;;;;4.78;1.92;;;5.80;94.90;;;;;;5012070;28;20026;-75
2020/12/27 00:59:05;;;;;;;8.52;2.15;;;5.70;94.90;;;;;;5011542;28;20034;-75
2020/12/27 01:01:31;;;;;;;6.68;2.35;;;5.70;95.20;;;;;;5011578;28;20030;-75
2020/12/27 01:03:57;;;;;;;6.03;2.15;;;5.70;94.90;;;;;;5011497;28;20045;-75
2020/12/27 01:06:27;;;;;;;3.00;1.83;;;5.70;95.00;;;;;;5010677;28;20038;-74
2020/12/27 01:08:54;;;;;;;5.53;2.05;;;5.70;95.00;;;;;;5012047;28;20018;-74
2020/12/27 01:11:20;;;;;;;4.28;1.90;;;5.70;94.90;;;;;;5011123;28;20414;-74
2020/12/27 01:13:46;;;;;;;3.47;1.92;;;5.70;94.90;;;;;;5011167;28;20065;-74
2020/12/27 01:16:18;;;;;;;4.03;2.08;;;5.60;94.90;;;;;;5011439;28;20080;-75
2020/12/27 01:18:46;;;;;;;4.63;2.00;;;5.60;95.00;;;;;;5011344;28;20582;-75
2020/12/27 01:21:20;;;;;;;3.77;2.30;;;5.60;94.90;;;;;;5010539;28;20330;-74
2020/12/27 01:23:45;;;;;;;3.53;2.00;;;5.60;94.90;;;;;;5011823;28;20354;-75
2020/12/27 01:26:11;;;;;;;5.97;2.15;;;5.60;94.90;;;;;;5012389;28;20038;-74
2020/12/27 01:28:39;;;;;;;3.38;2.00;;;5.60;94.80;;;;;;5014814;28;20533;-73
2020/12/27 01:31:05;;;;;;;4.40;2.00;;;5.60;94.90;;;;;;5014925;28;20068;-73
2020/12/27 01:33:30;;;;;;;5.22;2.30;;;5.60;94.90;;;;;;5014822;28;20029;-74
2020/12/27 01:35:56;;;;;;;2.55;1.90;;;5.50;94.90;;;;;;5016383;28;20029;-75
2020/12/27 01:38:22;;;;;;;5.25;1.90;;;5.50;95.00;;;;;;5014457;28;20046;-73
2020/12/27 01:40:47;;;;;;;5.80;2.42;;;5.60;95.00;;;;;;5014694;28;20108;-73
2020/12/27 01:43:16;;;;;;;5.03;2.10;;;5.60;94.90;;;;;;5013589;28;20030;-74
2020/12/27 01:45:41;;;;;;;3.40;1.85;;;5.60;94.90;;;;;;5013617;28;20030;-73
2020/12/27 01:48:13;;;;;;;5.82;2.30;;;5.60;94.80;;;;;;5014243;28;20092;-74
2020/12/27 01:50:38;;;;;;;5.80;1.90;;;5.60;94.90;;;;;;5015957;28;20127;-75
2020/12/27 01:53:04;;;;;;;5.15;2.08;;;5.60;94.80;;;;;;5014464;28;20432;-74
2020/12/27 01:55:32;;;;;;;3.30;2.13;;;5.60;94.90;;;;;;5014168;28;20054;-73
2020/12/27 01:58:13;;;;;;;3.53;1.60;;;5.60;95.00;;;;;;5014417;28;20030;-73
2020/12/27 02:00:39;;;;;;;4.35;2.17;;;5.70;94.80;;;;;;5014401;28;20101;-73
2020/12/27 02:03:05;;;;;;;3.05;2.00;;;5.60;94.90;;;;;;5014473;28;20034;-72
2020/12/27 02:05:31;;;;;;;4.13;1.95;;;5.60;94.80;;;;;;5014650;28;20386;-73
2020/12/27 02:07:57;;;;;;;2.75;1.88;;;5.70;94.80;;;;;;5014166;28;20034;-73
2020/12/27 02:10:23;;;;;;;7.95;2.10;;;5.70;94.80;;;;;;5014083;28;20506;-74
2020/12/27 02:12:49;;;;;;;5.38;2.08;;;5.70;95.00;;;;;;5014217;28;20046;-73
2020/12/27 02:15:15;;;;;;;3.75;1.92;;;5.80;94.80;;;;;;5013796;28;20025;-75
2020/12/27 02:17:40;;;;;;;3.72;1.70;;;5.80;94.80;;;;;;5014481;28;20029;-74
2020/12/27 02:20:06;;;;;;;6.78;2.25;;;5.80;94.70;;;;;;5013899;28;20045;-74
2020/12/27 02:22:32;;;;;;;2.85;2.03;;;5.80;94.60;;;;;;5012795;28;20038;-74
2020/12/27 02:24:57;;;;;;;3.53;1.80;;;5.70;94.60;;;;;;5013772;28;20030;-72
2020/12/27 02:27:23;;;;;;;3.40;1.70;;;5.80;94.60;;;;;;5013860;28;20356;-73
2020/12/27 02:29:49;;;;;;;3.50;2.28;;;5.90;94.60;;;;;;5015179;28;20400;-74
2020/12/27 02:32:14;;;;;;;4.13;1.90;;;5.90;94.40;;;;;;5013479;28;20049;-73
2020/12/27 02:34:40;;;;;;;3.33;1.80;;;5.90;94.50;;;;;;5013417;28;20045;-73
2020/12/27 02:37:06;;;;;;;3.38;2.30;;;5.90;94.40;;;;;;5013466;28;20041;-73
2020/12/27 02:39:31;;;;;;;3.17;2.03;;;5.80;94.40;;;;;;5013306;28;20041;-74
2020/12/27 02:41:57;;;;;;;4.32;2.35;;;5.80;94.30;;;;;;5015074;28;20022;-73
2020/12/27 02:44:23;;;;;;;3.03;1.70;;;5.80;94.40;;;;;;5013558;28;20045;-74
2020/12/27 02:46:48;;;;;;;2.97;1.88;;;5.70;94.20;;;;;;5013428;28;20034;-73
2020/12/27 02:49:14;;;;;;;3.65;1.83;;;5.70;94.30;;;;;;5009015;28;20488;-73
2020/12/27 02:51:39;;;;;;;4.43;2.22;;;5.80;94.40;;;;;;5012465;28;20034;-74
2020/12/27 02:54:05;;;;;;;7.20;2.20;;;5.80;94.30;;;;;;5013126;28;20026;-73
2020/12/27 02:56:31;;;;;;;4.22;2.15;;;5.60;94.30;;;;;;5014377;28;20052;-75
2020/12/27 02:58:59;;;;;;;3.72;1.77;;;5.60;94.40;;;;;;5013118;28;20034;-74
2020/12/27 03:01:25;;;;;;;6.85;2.33;;;5.50;94.40;;;;;;5012247;28;20034;-72
2020/12/27 03:03:51;;;;;;;5.22;2.20;;;5.50;94.40;;;;;;5012971;28;20096;-74
2020/12/27 03:06:19;;;;;;;4.40;2.33;;;5.40;94.40;;;;;;5012019;28;20135;-73
2020/12/27 03:08:46;;;;;;;3.83;2.33;;;5.40;94.50;;;;;;5014537;28;20030;-73
2020/12/27 03:11:12;;;;;;;6.18;2.63;;;5.40;94.60;;;;;;5011874;28;20325;-73
2020/12/27 03:13:37;;;;;;;4.78;2.28;;;5.30;94.60;;;;;;5012763;28;20117;-72
2020/12/27 03:16:05;;;;;;;4.00;1.92;;;5.40;94.60;;;;;;5011952;28;20038;-73
2020/12/27 03:18:31;;;;;;;4.93;2.28;;;5.30;94.50;;;;;;5012723;28;20038;-73
2020/12/27 03:20:57;;;;;;;6.93;2.20;;;5.30;94.80;;;;;;5013438;28;20022;-74
2020/12/27 03:23:23;;;;;;;5.97;2.58;;;5.30;94.60;;;;;;5012878;28;20475;-72
2020/12/27 03:25:49;;;;;;;7.13;3.22;;;5.30;94.60;;;;;;5011524;28;20034;-73
2020/12/27 03:28:15;;;;;;;4.40;2.47;;;5.30;94.60;;;;;;5012503;28;20049;-72
2020/12/27 03:30:42;;;;;;;4.47;2.22;;;5.30;94.60;;;;;;5011211;28;20360;-74
2020/12/27 03:33:07;;;;;;;5.03;2.30;;;5.20;94.60;;;;;;5012516;28;20022;-74
2020/12/27 03:35:33;;;;;;;5.32;2.67;;;5.30;94.60;;;;;;5014018;28;20462;-74
2020/12/27 03:37:59;;;;;;;5.85;2.05;;;5.20;94.60;;;;;;5012428;28;20092;-74
2020/12/27 03:40:25;;;;;;;3.60;1.83;;;5.30;94.60;;;;;;5012600;28;20049;-75
2020/12/27 03:42:51;;;;;;;3.72;2.40;;;5.30;94.60;;;;;;5012320;28;20069;-73
2020/12/27 03:45:17;;;;;;;3.85;1.70;;;5.20;94.50;;;;;;5012510;28;20056;-74
2020/12/27 03:47:43;;;;;;;3.20;2.30;;;5.30;94.50;;;;;;5013863;28;20025;-73
2020/12/27 03:50:08;;;;;;;3.78;2.25;;;5.30;94.50;;;;;;5011659;28;20038;-74
2020/12/27 03:52:34;;;;;;;3.70;2.03;;;5.30;94.50;;;;;;5012035;28;20045;-73
2020/12/27 03:54:59;;;;;;;3.20;2.08;;;5.20;94.50;;;;;;5012024;28;20061;-73
2020/12/27 03:57:25;;;;;;;3.10;2.10;;;5.20;94.60;;;;;;5011820;28;20096;-72
2020/12/27 03:59:51;;;;;;;4.95;2.22;;;5.20;94.50;;;;;;5012617;28;20026;-72
2020/12/27 04:02:17;;;;;;;4.03;1.95;;;5.20;94.40;;;;;;5012164;28;20049;-74
2020/12/27 04:04:43;;;;;;;3.17;1.92;;;5.20;94.50;;;;;;5012229;28;20042;-73
2020/12/27 04:07:08;;;;;;;5.63;2.10;;;5.30;94.40;;;;;;5012025;28;20038;-72
2020/12/27 04:09:35;;;;;;;6.22;2.25;;;5.20;94.40;;;;;;5012328;28;20522;-73
2020/12/27 04:12:01;;;;;;;3.25;2.03;;;5.20;94.40;;;;;;5013568;28;20022;-73
2020/12/27 04:14:27;;;;;;;4.97;2.42;;;5.20;94.40;;;;;;5012095;28;20052;-73
2020/12/27 04:16:53;;;;;;;4.13;1.80;;;5.20;94.50;;;;;;5012120;28;20108;-73
2020/12/27 04:19:19;;;;;;;3.83;1.95;;;5.20;94.40;;;;;;5012088;28;20046;-74
2020/12/27 04:21:48;;;;;;;2.30;1.77;;;5.20;94.40;;;;;;5011738;28;20468;-73
2020/12/27 04:24:13;;;;;;;4.18;2.00;;;5.20;94.40;;;;;;5011882;28;20036;-73
2020/12/27 04:26:39;;;;;;;4.50;2.22;;;5.20;94.30;;;;;;5013504;28;20104;-74
2020/12/27 04:29:05;;;;;;;2.83;1.63;;;5.20;94.40;;;;;;5011695;28;20068;-74
2020/12/27 04:31:31;;;;;;;5.15;2.30;;;5.20;94.30;;;;;;5011730;28;20061;-73
2020/12/27 04:33:57;;;;;;;2.78;1.55;;;5.30;94.30;;;;;;5011823;28;20125;-74
2020/12/27 04:36:24;;;;;;;2.85;1.52;;;5.20;94.20;;;;;;5011795;28;20396;-73
2020/12/27 04:38:50;;;;;;;2.38;1.48;;;5.20;94.30;;;;;;5013245;28;20399;-72
2020/12/27 04:41:17;;;;;;;3.65;1.88;;;5.20;94.40;;;;;;5011508;28;20046;-72
2020/12/27 04:43:45;;;;;;;2.15;1.60;;;5.20;94.40;;;;;;5011617;28;20034;-74
2020/12/27 04:46:12;;;;;;;5.72;2.33;;;5.20;94.30;;;;;;5011685;28;20478;-73
2020/12/27 04:48:39;;;;;;;3.15;1.88;;;5.10;94.20;;;;;;5011599;28;20046;-72
2020/12/27 04:51:06;;;;;;;8.68;1.75;;;5.10;94.20;;;;;;5010598;28;20030;-72
2020/12/27 04:53:36;;;;;;;3.83;1.92;;;5.10;94.20;;;;;;5013268;28;20014;-72
2020/12/27 04:56:03;;;;;;;3.15;1.77;;;5.20;94.20;;;;;;5011179;28;20476;-72
2020/12/27 04:58:29;;;;;;;3.53;2.30;;;5.10;94.20;;;;;;5011437;28;20127;-74
2020/12/27 05:01:00;;;;;;;3.60;1.50;;;5.10;94.10;;;;;;5012172;28;20295;-72
2020/12/27 05:03:26;;;;;;;1.77;1.50;;;5.20;94.00;;;;;;5015497;28;20415;-72
2020/12/27 05:05:53;;;;;;;3.45;1.38;;;5.10;93.80;;;;;;5015687;28;20022;-71
2020/12/27 05:08:20;;;;;;;3.65;2.10;;;5.00;93.80;;;;;;5015218;28;20048;-74
2020/12/27 05:10:46;;;;;;;2.00;1.50;;;5.10;94.10;;;;;;5013986;28;20475;-73
2020/12/27 05:13:14;;;;;;;2.42;1.30;;;5.10;93.80;;;;;;5015044;28;20100;-73
2020/12/27 05:15:40;;;;;;;3.67;1.77;;;5.10;93.70;;;;;;5014035;28;20042;-73
2020/12/27 05:18:07;;;;;;;2.35;1.45;;;5.10;93.70;;;;;;5014091;28;20459;-72
2020/12/27 05:20:34;;;;;;;3.70;1.40;;;5.10;93.60;;;;;;5016468;28;20030;-72
2020/12/27 05:23:01;;;;;;;2.60;1.45;;;5.10;93.50;;;;;;5014982;28;20033;-72
2020/12/27 05:25:32;;;;;;;2.03;1.10;;;5.00;93.40;;;;;;5014954;28;20125;-72
2020/12/27 05:28:04;;;;;;;3.15;1.73;;;5.00;93.50;;;;;;5014784;28;20117;-72
2020/12/27 05:30:30;;;;;;;2.42;1.45;;;5.00;93.40;;;;;;5014742;28;20058;-72
2020/12/27 05:32:56;;;;;;;5.15;1.60;;;5.00;93.50;;;;;;5016311;28;20061;-73
2020/12/27 05:35:23;;;;;;;2.22;1.45;;;5.00;93.50;;;;;;5014806;28;20025;-74
2020/12/27 05:37:50;;;;;;;2.10;1.33;;;4.90;93.50;;;;;;5014847;28;20038;-73
2020/12/27 05:40:20;;;;;;;1.88;1.55;;;5.00;93.50;;;;;;5015000;28;20069;-71
2020/12/27 05:42:47;;;;;;;2.50;1.20;;;5.00;93.50;;;;;;5014803;28;20120;-74
2020/12/27 05:45:17;;;;;;;5.00;1.65;;;5.00;93.50;;;;;;5014665;28;20510;-72
2020/12/27 05:47:44;;;;;;;2.42;1.33;;;5.00;93.50;;;;;;5016270;28;20025;-72
2020/12/27 05:50:14;;;;;;;2.58;1.38;;;5.00;93.50;;;;;;5014639;28;20037;-73
2020/12/27 05:52:45;;;;;;;3.75;1.63;;;5.00;93.50;;;;;;5014656;28;20175;-73
2020/12/27 05:55:17;;;;;;;4.90;1.27;;;5.00;93.50;;;;;;5014279;28;20054;-73
2020/12/27 05:57:52;;;;;;;2.63;1.30;;;5.00;93.50;;;;;;5014495;28;20117;-73
2020/12/27 06:00:19;;;;;;;4.75;1.60;;;5.00;93.60;;;;;;5014306;28;20026;-73
2020/12/27 06:02:45;;;;;;;6.05;1.23;;;5.00;93.60;;;;;;5016042;28;20037;-73
2020/12/27 06:05:12;;;;;;;2.50;1.20;;;5.00;93.50;;;;;;5014144;28;20030;-73
2020/12/27 06:07:43;;;;;;;3.70;1.13;;;5.10;93.60;;;;;;5014446;28;20034;-73
2020/12/27 06:10:21;;;;;;;2.35;1.48;;;5.00;93.60;;;;;;5013358;28;20034;-73
2020/12/27 06:13:12;;;;;;;2.67;1.23;;;5.10;93.60;;;;;;5013923;28;20041;-73
2020/12/27 06:15:45;;;;;;;2.53;1.30;;;5.10;93.70;;;;;;5014219;28;20049;-73
2020/12/27 06:18:14;;;;;;;3.63;1.10;;;5.10;93.70;;;;;;5014062;28;20186;-73
2020/12/27 06:20:40;;;;;;;;;;;5.10;93.70;;;;;;5015882;28;20091;-72
2020/12/27 06:23:07;;;;;;;2.05;1.40;;;5.10;93.60;;;;;;5012760;28;19975;-73
2020/12/27 06:25:34;;;;;;;3.25;1.20;;;5.00;93.60;;;;;;5013828;28;20081;-72
2020/12/27 06:28:01;;;;;;;2.45;1.27;;;5.00;93.70;;;;;;5012708;28;20037;-73
2020/12/27 06:30:32;;;;;;;2.70;1.23;;;5.10;93.80;;;;;;5013875;28;20092;-72
2020/12/27 06:33:20;;;;;;;1.90;1.30;;;5.10;93.80;;;;;;5015343;28;20029;-72
2020/12/27 06:35:46;;;;;;;1.70;1.40;;;5.00;93.80;;;;;;5013261;28;20121;-72
2020/12/27 06:38:23;;;;;;;3.45;1.25;;;5.10;93.90;;;;;;5013981;28;20120;-73
2020/12/27 06:40:58;;;;;;;1.30;1.05;;;5.10;93.90;;;;;;5013513;28;20037;-72
2020/12/27 06:43:25;;;;;;;3.50;1.50;;;5.10;93.80;;;;;;5013569;28;20045;-72
2020/12/27 06:45:51;;;;;;;2.70;1.15;;;5.00;94.10;;;;;;5013671;28;20046;-73
2020/12/27 06:48:34;;;;;;;3.97;1.42;;;5.00;93.80;;;;;;5013602;28;20120;-74
2020/12/27 06:51:00;;;;;;;4.55;1.50;;;5.00;93.80;;;;;;5015129;28;20375;-73
2020/12/27 06:53:42;;;;;;;5.03;1.38;;;5.00;93.80;;;;;;5012397;28;20452;-73
2020/12/27 06:56:13;;;;;;;1.80;1.27;;;5.10;93.90;;;;;;5013387;28;20108;-73
2020/12/27 06:58:40;;;;;;;3.45;1.52;;;5.10;94.00;;;;;;5013390;28;20034;-73
2020/12/27 07:01:10;;;;;;;2.23;1.47;;;5.10;93.90;;;;;;5013189;28;20532;-73
2020/12/27 07:03:36;;;;;;;2.50;1.40;;;5.10;93.90;;;;;;5013201;28;20045;-73
2020/12/27 07:06:19;;;;;;;5.28;2.50;;;5.10;93.90;;;;;;5013602;28;20352;-74
2020/12/27 07:08:45;;;;;;;5.30;2.05;;;5.10;93.90;;;;;;5012483;28;20440;-74
2020/12/27 07:11:21;;;;;;;3.83;1.77;;;5.10;93.90;;;;;;5012572;28;20030;-74
2020/12/27 07:13:52;;;;;;;3.85;1.73;;;5.10;94.00;;;;;;5013080;28;20121;-73
2020/12/27 07:16:18;;;;;;;3.35;1.50;;;5.10;93.90;;;;;;5012770;28;20034;-74
2020/12/27 07:18:48;;;;;;;1.63;1.25;;;5.20;94.00;;;;;;5013189;28;20045;-73
2020/12/27 07:21:19;;;;;;;4.90;1.58;;;5.20;93.90;;;;;;5012813;28;20036;-74
2020/12/27 07:24:08;;;;;;;1.83;1.30;;;5.20;94.00;;;;;;5014007;28;20495;-75
2020/12/27 07:26:37;;;;;;;3.00;1.55;;;5.20;93.90;;;;;;5002703;28;20081;-74
2020/12/27 07:29:06;;;;;;;2.25;1.48;;;5.20;93.90;;;;;;5012768;28;20042;-73
2020/12/27 07:31:37;;;;;;;4.18;1.70;;;5.30;93.90;;;;;;5012887;28;20045;-74
2020/12/27 07:34:04;;;;;;;4.00;1.50;;;5.30;93.90;;;;;;5011730;28;20034;-74
2020/12/27 07:36:35;;;;;;;3.85;1.23;;;5.30;93.90;;;;;;5012576;28;20464;-74
2020/12/27 07:39:06;;;;;;;1.60;1.08;;;5.30;93.80;;;;;;5013242;28;20062;-74
2020/12/27 07:41:37;;;;;;;2.40;1.33;;;5.30;93.80;;;;;;5012753;28;20081;-74
2020/12/27 07:44:14;;;;;;;4.95;1.65;;;5.40;93.80;;;;;;5012193;28;20053;-73
2020/12/27 07:46:41;;;;;;;1.40;1.30;;;5.30;93.80;;;;;;5012431;28;20357;-73
2020/12/27 07:49:08;;;;;;;1.88;1.17;;;5.40;93.80;;;;;;5012321;28;20026;-73
2020/12/27 07:51:34;;;;;;;5.90;2.83;;;5.40;93.80;;;;;;5012407;28;20034;-74
2020/12/27 07:54:02;;;;;;;5.82;1.77;;;5.40;93.70;;;;;;5014069;28;20498;-74
2020/12/27 07:56:28;;;;;;;2.28;1.20;;;5.50;93.80;;;;;;5012243;28;20060;-73
2020/12/27 07:58:59;;;;;;;2.58;1.30;;;5.40;93.80;;;;;;5011262;28;20080;-73
2020/12/27 08:01:31;;;;;;;2.38;1.20;;;5.50;94.00;;;;;;5012196;28;20069;-72
2020/12/27 08:04:07;;;;;;;2.08;1.00;;;5.50;93.80;;;;;;5012197;28;20030;-73
2020/12/27 08:06:35;;;;;;;3.42;1.23;;;5.50;93.70;;;;;;5011155;28;20034;-73
2020/12/27 08:09:09;;;;;;;2.92;1.77;;;5.50;93.60;;;;;;5013736;28;20038;-73
2020/12/27 08:11:44;;;;;;;2.58;0.98;;;5.50;93.60;;;;;;5012419;28;20115;-74
2020/12/27 08:14:12;;;;;;;1.60;1.10;;;5.50;93.60;;;;;;5010907;28;20148;-73
2020/12/27 08:16:43;;;;;;;2.15;1.20;;;5.50;93.60;;;;;;5011961;28;20056;-73
2020/12/27 08:19:11;;;;;;;3.55;1.15;;;5.50;93.60;;;;;;5012011;28;20029;-72
2020/12/27 08:21:42;;;;;;;1.83;0.98;;;5.50;93.50;;;;;;5012074;28;20053;-71
2020/12/27 08:24:12;;;;;;;4.25;1.40;;;5.40;93.50;;;;;;5011942;28;20355;-72
2020/12/27 08:26:43;;;;;;;4.70;1.30;;;5.40;93.50;;;;;;5013547;28;20018;-74
2020/12/27 08:29:15;;;;;;;3.95;1.20;;;5.40;93.50;;;;;;5011804;28;20526;-72
2020/12/27 08:31:42;;;;;;;2.10;1.25;;;5.40;93.40;;;;;;5011785;28;20491;-73
2020/12/27 08:34:11;;;;;;;2.58;1.17;;;5.40;93.30;;;;;;5011869;28;20437;-71
2020/12/27 08:36:45;;;;;;;2.20;1.00;;;5.40;93.30;;;;;;5015610;28;20030;-73
2020/12/27 08:39:32;;;;;;;1.98;1.10;;;5.40;93.30;;;;;;5015975;28;20060;-72
2020/12/27 08:42:16;;;;;;;1.63;1.10;;;5.40;93.30;;;;;;5016507;28;20176;-72
2020/12/27 08:44:46;;;;;;;3.20;1.13;;;5.40;93.30;;;;;;5015107;28;20045;-73
2020/12/27 08:47:46;;;;;;;3.70;0.98;;;5.40;93.40;;;;;;5014788;28;20534;-73
2020/12/27 08:50:24;;;;;;;1.13;1.02;;;5.40;93.40;;;;;;5015780;28;20438;-74
2020/12/27 08:52:56;;;;;;;3.83;1.00;;;5.40;93.40;;;;;;5015367;28;20038;-73
2020/12/27 08:55:26;;;;;;;4.28;0.98;;;5.50;93.40;;;;;;5015487;28;20058;-72
2020/12/27 08:57:52;;;;;;;1.63;1.05;;;5.50;93.40;;;;;;5015665;28;20037;-73
2020/12/27 09:00:19;;;;;;;2.22;0.95;;;5.50;93.50;;;;;;5014211;28;20022;-74
2020/12/27 09:02:55;;;;;;;0.98;0.70;;;5.40;93.50;;;;;;5017004;28;20022;-75
2020/12/27 09:05:25;;;;;;;3.50;1.08;;;5.50;93.50;;;;;;5015492;28;20456;-77
2020/12/27 09:07:51;;;;;;;1.67;0.88;;;5.50;93.50;;;;;;5015385;28;20137;-79
2020/12/27 09:10:23;;;;;;;5.53;1.42;;;5.50;93.40;;;;;;5015327;28;20583;-74
2020/12/27 09:12:59;;;;;;;1.70;1.00;;;5.50;93.30;;;;;;5015551;28;20049;-77
2020/12/27 09:15:30;;;;;;;1.95;0.98;;;5.50;93.30;;;;;;5015022;28;20046;-76
2020/12/27 09:18:00;;;;;;;4.70;1.00;;;5.50;93.30;;;;;;5017749;28;20040;-82
2020/12/27 09:20:28;;;;;;;3.17;1.23;;;5.50;93.20;;;;;;5015441;28;20144;-79
2020/12/27 09:22:54;;;;;;;6.03;1.20;;;5.60;93.20;;;;;;5015714;28;20452;-78
2020/12/27 09:25:22;;;;;;;2.53;1.02;;;5.60;93.20;;;;;;5016424;28;20038;-86
2020/12/27 09:27:48;;;;;;;;;;;5.60;93.20;;;;;;5016077;28;20368;-76
2020/12/27 09:30:16;;;;;;;1.92;1.00;;;5.60;93.20;;;;;;5016445;28;19906;-90
2020/12/27 09:32:42;;;;;;;4.55;1.17;;;5.60;93.20;;;;;;5018218;28;20026;-85
2020/12/27 09:35:08;;;;;;;3.63;1.00;;;5.60;93.20;;;;;;5015297;28;20475;-77
2020/12/27 09:37:34;;;;;;;4.75;1.55;;;5.70;93.20;;;;;;5014858;28;20455;-77
2020/12/27 09:40:00;;;;;;;4.25;0.98;;;5.80;93.30;;;;;;5014147;28;20065;-83
2020/12/27 09:42:28;;;;;;;2.45;0.95;;;5.70;93.10;;;;;;5014908;28;20038;-77
2020/12/27 09:44:55;;;;;;;;;;;5.80;93.20;;;;;;5016747;28;20030;-76
2020/12/27 09:47:23;;;;;;;2.57;1.10;;;5.80;93.20;;;;;;5014205;28;20243;-72
2020/12/27 09:50:08;;;;;;;1.48;0.80;;;5.80;93.10;;;;;;5014693;28;20368;-71
2020/12/27 09:52:44;;;;;;;3.47;1.00;;;5.80;93.10;;;;;;5014779;28;20100;-72
2020/12/27 09:55:10;;;;;;;5.13;1.10;;;5.90;93.20;;;;;;5014481;28;20050;-72
2020/12/27 09:57:36;;;;;;;1.35;0.88;;;5.80;93.20;;;;;;5013551;28;20175;-72
2020/12/27 10:00:03;;;;;;;5.50;1.40;;;5.90;93.30;;;;;;5014812;28;20033;-74
2020/12/27 10:02:29;;;;;;;1.58;0.80;;;5.90;93.30;;;;;;5013356;28;20030;-71
2020/12/27 10:04:54;;;;;;;1.40;1.17;;;5.90;93.30;;;;;;5014112;28;20060;-72
2020/12/27 10:07:20;;;;;;;0.80;0.77;;;6.00;93.30;;;;;;5014279;28;20034;-72
2020/12/27 10:09:46;;;;;;;1.48;1.05;;;5.90;93.30;;;;;;5013231;28;20034;-73
2020/12/27 10:12:12;;;;;;;3.65;1.50;;;6.00;93.40;;;;;;5013355;28;20395;-75
2020/12/27 10:14:38;;;;;;;1.88;1.00;;;6.00;93.30;;;;;;5015910;28;20360;-77
2020/12/27 10:17:03;;;;;;;1.70;1.17;;;6.00;93.20;;;;;;5014285;28;20037;-73
2020/12/27 10:19:30;;;;;;;1.23;0.85;;;6.00;93.30;;;;;;5013805;28;20622;-72
2020/12/27 10:21:56;;;;;;;2.53;1.02;;;6.10;93.30;;;;;;5012823;28;20096;-75
2020/12/27 10:24:23;;;;;;;1.80;1.10;;;6.10;93.30;;;;;;5013989;28;20045;-75
2020/12/27 10:26:53;;;;;;;3.17;1.00;;;6.00;93.20;;;;;;5015471;28;20084;-72
2020/12/27 10:29:19;;;;;;;1.35;1.10;;;6.10;93.20;;;;;;5014009;28;20045;-74
2020/12/27 10:31:56;;;;;;;1.60;1.00;;;6.10;93.20;;;;;;5012729;28;20077;-72
2020/12/27 10:34:22;;;;;;;2.03;1.00;;;6.20;93.20;;;;;;5012663;28;20022;-76
2020/12/27 10:36:49;;;;;;;1.75;1.05;;;6.20;93.20;;;;;;5012293;28;20049;-75
2020/12/27 10:39:16;;;;;;;2.03;0.75;;;6.20;93.30;;;;;;5013389;28;20037;-75
2020/12/27 10:41:45;;;;;;;2.65;0.88;;;6.30;93.30;;;;;;5015414;28;20105;-74
2020/12/27 10:44:11;;;;;;;2.42;1.00;;;6.30;93.40;;;;;;5013787;28;20375;-74
2020/12/27 10:46:37;;;;;;;2.83;1.30;;;6.30;93.30;;;;;;5013547;28;20076;-74
2020/12/27 10:49:03;;;;;;;2.80;1.30;;;6.30;93.30;;;;;;5013334;28;20518;-75
2020/12/27 10:51:34;;;;;;;1.63;0.90;;;6.30;93.30;;;;;;5012337;28;20121;-74
2020/12/27 10:54:00;;;;;;;1.60;0.93;;;6.30;93.30;;;;;;5014134;28;20027;-74
2020/12/27 10:56:26;;;;;;;3.10;0.90;;;6.30;93.30;;;;;;5013187;28;20061;-74
2020/12/27 10:58:51;;;;;;;0.98;0.80;;;6.40;93.40;;;;;;5011304;28;20033;-73
2020/12/27 11:01:17;;;;;;;1.92;1.00;;;6.40;93.40;;;;;;5009408;28;20042;-73
2020/12/27 11:03:43;;;;;;;4.72;1.50;;;6.40;93.30;;;;;;4992509;28;20035;-73
2020/12/27 11:06:09;;;;;;;0.80;0.75;;;6.40;93.20;;;;;;4993449;28;20038;-75
2020/12/27 11:08:34;;;;;;;1.60;0.90;;;6.40;93.20;;;;;;4994961;28;20453;-72
2020/12/27 11:11:00;;;;;;;1.08;0.70;;;6.50;93.20;;;;;;4992394;28;20476;-71
2020/12/27 11:13:26;;;;;;;1.33;0.93;;;6.50;93.10;;;;;;4993529;28;20073;-76
2020/12/27 11:15:52;;;;;;;2.38;0.88;;;6.50;93.20;;;;;;4992521;28;20030;-73
2020/12/27 11:18:18;;;;;;;2.05;1.10;;;6.50;93.10;;;;;;4993454;28;20148;-71
2020/12/27 11:20:43;;;;;;;1.48;0.90;;;6.50;93.10;;;;;;4994791;28;20187;-75
2020/12/27 11:23:09;;;;;;;2.10;1.00;;;6.50;93.10;;;;;;4993210;28;20076;-72
2020/12/27 11:25:35;;;;;;;1.70;0.90;;;6.50;93.40;;;;;;4992098;28;20038;-74
2020/12/27 11:28:00;;;;;;;2.65;1.10;;;6.50;93.10;;;;;;4992240;28;20034;-74
2020/12/27 11:30:26;;;;;;;2.78;1.10;;;6.50;93.20;;;;;;4993429;28;20034;-74
2020/12/27 11:32:52;;;;;;;1.92;0.93;;;6.60;93.20;;;;;;4994730;28;20050;-74
2020/12/27 11:35:17;;;;;;;4.18;1.45;;;6.60;93.20;;;;;;4993211;28;20040;-74
2020/12/27 11:37:43;;;;;;;3.90;1.00;;;6.50;93.10;;;;;;4992933;28;20380;-75
2020/12/27 11:40:09;;;;;;;2.05;1.00;;;6.50;93.00;;;;;;4992529;28;20365;-74
2020/12/27 11:42:36;;;;;;;2.30;1.00;;;6.50;93.00;;;;;;4992825;28;20520;-74
2020/12/27 11:45:03;;;;;;;1.33;0.90;;;6.50;93.00;;;;;;4994431;28;20033;-78
2020/12/27 11:47:28;;;;;;;1.73;0.95;;;6.50;93.10;;;;;;4992964;28;20093;-72
2020/12/27 11:49:54;;;;;;;2.25;1.13;;;6.50;93.20;;;;;;4992811;28;20100;-75
2020/12/27 11:52:24;;;;;;;2.38;1.10;;;6.50;93.10;;;;;;4992570;28;20685;-73
2020/12/27 11:54:52;;;;;;;1.30;0.90;;;6.50;93.20;;;;;;4991875;28;20069;-72
2020/12/27 11:57:18;;;;;;;1.98;1.05;;;6.50;93.30;;;;;;4991954;28;20121;-73
2020/12/27 11:59:44;;;;;;;2.60;1.00;;;6.50;93.20;;;;;;4994214;28;20185;-73
2020/12/27 12:02:10;;;;;;;2.05;1.30;;;6.50;93.20;;;;;;4992246;28;20098;-71
2020/12/27 12:04:35;;;;;;;3.15;1.15;;;6.50;93.20;;;;;;4992412;28;20511;-73
2020/12/27 12:07:01;;;;;;;2.35;1.17;;;6.50;93.20;;;;;;4992577;28;20034;-72
2020/12/27 12:09:27;;;;;;;2.25;1.08;;;6.50;93.20;;;;;;4991008;28;20109;-71
2020/12/27 12:11:52;;;;;;;1.75;1.10;;;6.50;93.20;;;;;;4994036;28;20383;-78
2020/12/27 12:14:18;;;;;;;2.50;0.95;;;6.50;93.30;;;;;;4991158;28;20486;-76
2020/12/27 12:16:44;;;;;;;3.05;1.05;;;6.60;93.40;;;;;;4992545;28;20483;-72
2020/12/27 12:19:10;;;;;;;1.20;1.00;;;6.60;93.40;;;;;;4992486;28;20538;-74
2020/12/27 12:21:35;;;;;;;2.20;1.02;;;6.60;93.20;;;;;;4992014;28;20038;-73
2020/12/27 12:24:01;;;;;;;2.53;1.05;;;6.70;93.30;;;;;;4993935;28;20461;-73
2020/12/27 12:26:28;;;;;;;1.98;1.20;;;6.60;93.20;;;;;;4992325;28;20104;-76
2020/12/27 12:28:56;;;;;;;2.97;1.10;;;6.60;93.20;;;;;;4992175;28;20122;-76
2020/12/27 12:31:22;;;;;;;1.92;0.95;;;6.60;93.30;;;;;;4991874;28;20031;-81
2020/12/27 12:33:49;;;;;;;1.42;1.05;;;6.60;93.30;;;;;;4992620;28;20042;-74
2020/12/27 12:36:16;;;;;;;2.00;1.02;;;6.50;93.40;;;;;;4992120;28;20113;-74
2020/12/27 12:38:42;;;;;;;1.48;0.90;;;6.50;93.50;;;;;;4993929;28;20054;-73
2020/12/27 12:41:11;;;;;;;1.25;0.90;;;6.60;93.70;;;;;;4992058;28;20100;-78
2020/12/27 12:43:40;;;;;;;2.13;1.13;;;6.50;93.70;;;;;;4991972;28;20031;-74
2020/12/27 12:46:10;;;;;;;1.95;1.10;;;6.50;93.70;;;;;;4992127;28;20452;-74
2020/12/27 12:48:36;;;;;;;1.60;1.20;;;6.50;93.80;;;;;;4991089;28;20069;-74
2020/12/27 12:51:03;;;;;;;1.85;1.15;;;6.50;93.90;;;;;;4993477;28;20022;-73
2020/12/27 12:53:29;;;;;;;1.75;1.08;;;6.40;93.90;;;;;;4992267;28;20484;-73
2020/12/27 12:55:54;;;;;;;1.60;0.85;;;6.50;94.20;;;;;;4992048;28;20062;-75
2020/12/27 12:58:20;;;;;;;1.88;1.25;;;6.40;94.40;;;;;;4992090;28;20454;-75
2020/12/27 13:00:45;;;;;;;1.75;0.93;;;6.40;94.70;;;;;;4991968;28;20097;-73